sensor_id;sensor_type;location;lat;lon;timestamp;temperature;humidity
63875;DHT22;51595;24.180;-110.296;2022-10-01T00:02:16;34.00;94.00
63875;DHT22;51595;24.180;-110.296;2022-10-01T00:04:42;34.30;93.70
63875;DHT22;51595;24.180;-110.296;2022-10-01T00:07:09;34.50;93.00
63875;DHT22;51595;24.180;-110.296;2022-10-01T00:09:39;35.10;92.00
63875;DHT22;51595;24.180;-110.296;2022-10-01T00:12:06;35.10;92.00
63875;DHT22;51595;24.180;-110.296;2022-10-01T00:14:33;34.80;92.80
63875;DHT22;51595;24.180;-110.296;2022-10-01T00:17:00;34.90;92.30
63875;DHT22;51595;24.180;-110.296;2022-10-01T00:19:27;34.80;91.70
63875;DHT22;51595;24.180;-110.296;2022-10-01T00:21:53;34.60;91.40
63875;DHT22;51595;24.180;-110.296;2022-10-01T00:24:19;35.10;91.10
63875;DHT22;51595;24.180;-110.296;2022-10-01T00:26:46;35.50;90.20
63875;DHT22;51595;24.180;-110.296;2022-10-01T00:29:13;35.70;89.60
63875;DHT22;51595;24.180;-110.296;2022-10-01T00:31:41;35.70;88.80
63875;DHT22;51595;24.180;-110.296;2022-10-01T00:34:10;35.70;90.10
63875;DHT22;51595;24.180;-110.296;2022-10-01T00:36:37;35.70;89.90
63875;DHT22;51595;24.180;-110.296;2022-10-01T00:39:03;35.70;89.50
63875;DHT22;51595;24.180;-110.296;2022-10-01T00:41:32;35.70;89.30
63875;DHT22;51595;24.180;-110.296;2022-10-01T00:44:23;35.60;88.90
63875;DHT22;51595;24.180;-110.296;2022-10-01T00:46:47;35.60;88.80
63875;DHT22;51595;24.180;-110.296;2022-10-01T00:49:17;35.60;92.60
63875;DHT22;51595;24.180;-110.296;2022-10-01T00:51:54;35.50;93.00
63875;DHT22;51595;24.180;-110.296;2022-10-01T00:54:31;35.50;93.30
63875;DHT22;51595;24.180;-110.296;2022-10-01T00:57:00;35.60;93.00
63875;DHT22;51595;24.180;-110.296;2022-10-01T00:59:28;35.20;93.40
63875;DHT22;51595;24.180;-110.296;2022-10-01T01:01:55;34.80;94.30
63875;DHT22;51595;24.180;-110.296;2022-10-01T01:04:22;34.50;94.50
63875;DHT22;51595;24.180;-110.296;2022-10-01T01:06:54;34.20;95.10
63875;DHT22;51595;24.180;-110.296;2022-10-01T01:09:31;34.20;95.50
63875;DHT22;51595;24.180;-110.296;2022-10-01T01:14:45;33.70;96.20
63875;DHT22;51595;24.180;-110.296;2022-10-01T01:18:09;33.60;96.70
63875;DHT22;51595;24.180;-110.296;2022-10-01T01:28:39;33.30;97.10
63875;DHT22;51595;24.180;-110.296;2022-10-01T01:31:14;33.30;97.20
63875;DHT22;51595;24.180;-110.296;2022-10-01T01:33:45;33.20;97.40
63875;DHT22;51595;24.180;-110.296;2022-10-01T01:36:19;33.00;97.90
63875;DHT22;51595;24.180;-110.296;2022-10-01T01:38:52;32.90;98.20
63875;DHT22;51595;24.180;-110.296;2022-10-01T01:41:33;32.80;98.60
63875;DHT22;51595;24.180;-110.296;2022-10-01T01:44:01;32.80;99.10
63875;DHT22;51595;24.180;-110.296;2022-10-01T01:46:31;32.80;99.80
63875;DHT22;51595;24.180;-110.296;2022-10-01T01:49:02;32.70;99.90
63875;DHT22;51595;24.180;-110.296;2022-10-01T01:51:34;32.50;99.90
63875;DHT22;51595;24.180;-110.296;2022-10-01T01:54:04;32.40;99.90
63875;DHT22;51595;24.180;-110.296;2022-10-01T01:56:31;32.40;99.90
63875;DHT22;51595;24.180;-110.296;2022-10-01T01:59:00;32.20;99.90
63875;DHT22;51595;24.180;-110.296;2022-10-01T02:01:35;32.20;99.90
63875;DHT22;51595;24.180;-110.296;2022-10-01T02:16:11;31.90;99.90
63875;DHT22;51595;24.180;-110.296;2022-10-01T02:21:59;31.50;99.90
63875;DHT22;51595;24.180;-110.296;2022-10-01T02:24:53;31.40;99.90
63875;DHT22;51595;24.180;-110.296;2022-10-01T02:30:24;31.50;99.90
63875;DHT22;51595;24.180;-110.296;2022-10-01T02:32:51;31.50;99.90
63875;DHT22;51595;24.180;-110.296;2022-10-01T02:35:22;31.40;99.90
63875;DHT22;51595;24.180;-110.296;2022-10-01T02:37:51;31.10;99.90
63875;DHT22;51595;24.180;-110.296;2022-10-01T02:40:22;30.90;99.90
63875;DHT22;51595;24.180;-110.296;2022-10-01T02:42:57;31.00;99.90
63875;DHT22;51595;24.180;-110.296;2022-10-01T02:45:25;31.00;99.90
63875;DHT22;51595;24.180;-110.296;2022-10-01T02:47:58;31.10;99.90
63875;DHT22;51595;24.180;-110.296;2022-10-01T02:50:41;31.00;99.90
63875;DHT22;51595;24.180;-110.296;2022-10-01T02:53:48;31.00;99.90
63875;DHT22;51595;24.180;-110.296;2022-10-01T02:56:18;30.90;99.90
63875;DHT22;51595;24.180;-110.296;2022-10-01T02:59:06;30.70;99.90
63875;DHT22;51595;24.180;-110.296;2022-10-01T03:01:34;30.70;99.90
63875;DHT22;51595;24.180;-110.296;2022-10-01T03:04:01;30.80;99.90
63875;DHT22;51595;24.180;-110.296;2022-10-01T03:06:30;30.90;99.90
63875;DHT22;51595;24.180;-110.296;2022-10-01T03:08:56;31.00;99.90
63875;DHT22;51595;24.180;-110.296;2022-10-01T03:11:24;30.90;99.90
63875;DHT22;51595;24.180;-110.296;2022-10-01T03:13:51;30.90;99.90
63875;DHT22;51595;24.180;-110.296;2022-10-01T03:16:18;30.90;99.90
63875;DHT22;51595;24.180;-110.296;2022-10-01T03:18:45;30.80;99.90
63875;DHT22;51595;24.180;-110.296;2022-10-01T03:21:12;30.70;99.90
63875;DHT22;51595;24.180;-110.296;2022-10-01T03:23:38;30.50;99.90
63875;DHT22;51595;24.180;-110.296;2022-10-01T03:26:05;30.50;99.90
63875;DHT22;51595;24.180;-110.296;2022-10-01T03:28:31;30.50;99.90
63875;DHT22;51595;24.180;-110.296;2022-10-01T03:31:11;30.60;99.90
63875;DHT22;51595;24.180;-110.296;2022-10-01T03:33:40;30.40;99.90
63875;DHT22;51595;24.180;-110.296;2022-10-01T03:36:07;30.20;99.90
63875;DHT22;51595;24.180;-110.296;2022-10-01T03:38:48;30.20;99.90
63875;DHT22;51595;24.180;-110.296;2022-10-01T03:41:15;30.00;99.90
63875;DHT22;51595;24.180;-110.296;2022-10-01T03:43:41;30.00;99.90
63875;DHT22;51595;24.180;-110.296;2022-10-01T03:46:07;30.10;99.90
63875;DHT22;51595;24.180;-110.296;2022-10-01T03:48:37;30.10;99.90
63875;DHT22;51595;24.180;-110.296;2022-10-01T03:51:04;30.00;99.90
63875;DHT22;51595;24.180;-110.296;2022-10-01T03:53:31;29.90;99.90
63875;DHT22;51595;24.180;-110.296;2022-10-01T03:55:58;29.90;99.90
63875;DHT22;51595;24.180;-110.296;2022-10-01T03:58:25;29.90;99.90
63875;DHT22;51595;24.180;-110.296;2022-10-01T04:00:52;29.70;99.90
63875;DHT22;51595;24.180;-110.296;2022-10-01T04:03:21;29.70;99.90
63875;DHT22;51595;24.180;-110.296;2022-10-01T04:05:48;29.70;99.90
63875;DHT22;51595;24.180;-110.296;2022-10-01T04:08:15;29.60;99.90
63875;DHT22;51595;24.180;-110.296;2022-10-01T04:10:41;29.70;99.90
63875;DHT22;51595;24.180;-110.296;2022-10-01T04:13:08;29.70;99.90
63875;DHT22;51595;24.180;-110.296;2022-10-01T04:15:35;29.80;99.90
63875;DHT22;51595;24.180;-110.296;2022-10-01T04:18:02;29.60;99.90
63875;DHT22;51595;24.180;-110.296;2022-10-01T04:20:31;29.50;99.90
63875;DHT22;51595;24.180;-110.296;2022-10-01T04:22:58;29.30;99.90
63875;DHT22;51595;24.180;-110.296;2022-10-01T04:25:26;29.30;99.90
63875;DHT22;51595;24.180;-110.296;2022-10-01T04:27:58;29.30;99.90
63875;DHT22;51595;24.180;-110.296;2022-10-01T04:30:31;29.30;99.90
63875;DHT22;51595;24.180;-110.296;2022-10-01T04:32:58;29.30;99.90
63875;DHT22;51595;24.180;-110.296;2022-10-01T04:35:25;29.40;99.90
63875;DHT22;51595;24.180;-110.296;2022-10-01T04:40:35;29.30;99.90
63875;DHT22;51595;24.180;-110.296;2022-10-01T04:43:03;29.30;99.90
63875;DHT22;51595;24.180;-110.296;2022-10-01T04:45:30;29.20;99.90
63875;DHT22;51595;24.180;-110.296;2022-10-01T04:47:57;29.10;99.90
63875;DHT22;51595;24.180;-110.296;2022-10-01T04:50:25;29.00;99.90
63875;DHT22;51595;24.180;-110.296;2022-10-01T04:52:52;29.10;99.90
63875;DHT22;51595;24.180;-110.296;2022-10-01T04:55:20;29.10;99.90
63875;DHT22;51595;24.180;-110.296;2022-10-01T04:57:47;29.20;99.90
63875;DHT22;51595;24.180;-110.296;2022-10-01T05:00:17;29.20;99.90
63875;DHT22;51595;24.180;-110.296;2022-10-01T05:02:48;29.20;99.90
63875;DHT22;51595;24.180;-110.296;2022-10-01T05:05:17;29.10;99.90
63875;DHT22;51595;24.180;-110.296;2022-10-01T05:07:43;29.20;99.90
63875;DHT22;51595;24.180;-110.296;2022-10-01T05:10:15;29.30;99.90
63875;DHT22;51595;24.180;-110.296;2022-10-01T05:12:42;29.10;99.90
63875;DHT22;51595;24.180;-110.296;2022-10-01T05:15:09;29.00;99.90
63875;DHT22;51595;24.180;-110.296;2022-10-01T05:17:36;28.90;99.90
63875;DHT22;51595;24.180;-110.296;2022-10-01T05:20:04;28.90;99.90
63875;DHT22;51595;24.180;-110.296;2022-10-01T05:22:31;28.80;99.90
63875;DHT22;51595;24.180;-110.296;2022-10-01T05:24:57;28.80;99.90
63875;DHT22;51595;24.180;-110.296;2022-10-01T05:27:29;28.70;99.90
63875;DHT22;51595;24.180;-110.296;2022-10-01T05:29:56;28.70;99.90
63875;DHT22;51595;24.180;-110.296;2022-10-01T05:32:22;28.60;99.90
63875;DHT22;51595;24.180;-110.296;2022-10-01T05:34:49;28.70;99.90
63875;DHT22;51595;24.180;-110.296;2022-10-01T05:37:15;28.70;99.90
63875;DHT22;51595;24.180;-110.296;2022-10-01T05:39:44;28.70;99.90
63875;DHT22;51595;24.180;-110.296;2022-10-01T05:42:10;28.60;99.90
63875;DHT22;51595;24.180;-110.296;2022-10-01T05:44:37;28.50;99.90
63875;DHT22;51595;24.180;-110.296;2022-10-01T05:47:05;28.30;99.90
63875;DHT22;51595;24.180;-110.296;2022-10-01T05:49:32;28.40;99.90
63875;DHT22;51595;24.180;-110.296;2022-10-01T05:51:59;28.40;99.90
63875;DHT22;51595;24.180;-110.296;2022-10-01T05:54:29;28.40;99.90
63875;DHT22;51595;24.180;-110.296;2022-10-01T05:56:57;28.40;99.90
63875;DHT22;51595;24.180;-110.296;2022-10-01T05:59:24;28.60;99.90
63875;DHT22;51595;24.180;-110.296;2022-10-01T06:01:50;28.70;99.90
63875;DHT22;51595;24.180;-110.296;2022-10-01T06:04:17;28.80;99.90
63875;DHT22;51595;24.180;-110.296;2022-10-01T06:06:43;28.90;99.90
63875;DHT22;51595;24.180;-110.296;2022-10-01T06:09:10;28.70;99.90
63875;DHT22;51595;24.180;-110.296;2022-10-01T06:11:36;28.60;99.90
63875;DHT22;51595;24.180;-110.296;2022-10-01T06:14:03;28.50;99.90
63875;DHT22;51595;24.180;-110.296;2022-10-01T06:16:30;28.50;99.90
63875;DHT22;51595;24.180;-110.296;2022-10-01T06:18:57;28.50;99.90
63875;DHT22;51595;24.180;-110.296;2022-10-01T06:21:24;28.40;99.90
63875;DHT22;51595;24.180;-110.296;2022-10-01T06:23:51;28.40;99.90
63875;DHT22;51595;24.180;-110.296;2022-10-01T06:26:18;28.40;99.90
63875;DHT22;51595;24.180;-110.296;2022-10-01T06:28:47;28.40;99.90
63875;DHT22;51595;24.180;-110.296;2022-10-01T06:31:13;28.40;99.90
63875;DHT22;51595;24.180;-110.296;2022-10-01T06:33:40;28.30;99.90
63875;DHT22;51595;24.180;-110.296;2022-10-01T06:36:06;28.20;99.90
63875;DHT22;51595;24.180;-110.296;2022-10-01T06:38:33;28.20;99.90
63875;DHT22;51595;24.180;-110.296;2022-10-01T06:41:01;28.20;99.90
63875;DHT22;51595;24.180;-110.296;2022-10-01T06:43:30;28.20;99.90
63875;DHT22;51595;24.180;-110.296;2022-10-01T06:46:00;28.20;99.90
63875;DHT22;51595;24.180;-110.296;2022-10-01T06:48:27;28.20;99.90
63875;DHT22;51595;24.180;-110.296;2022-10-01T06:50:56;28.20;99.90
63875;DHT22;51595;24.180;-110.296;2022-10-01T06:53:23;28.20;99.90
63875;DHT22;51595;24.180;-110.296;2022-10-01T06:55:49;28.20;99.90
63875;DHT22;51595;24.180;-110.296;2022-10-01T06:58:19;28.10;99.90
63875;DHT22;51595;24.180;-110.296;2022-10-01T07:00:47;28.20;99.90
63875;DHT22;51595;24.180;-110.296;2022-10-01T07:03:16;28.40;99.90
63875;DHT22;51595;24.180;-110.296;2022-10-01T07:05:44;28.40;99.90
63875;DHT22;51595;24.180;-110.296;2022-10-01T07:08:11;28.30;99.90
63875;DHT22;51595;24.180;-110.296;2022-10-01T07:10:38;28.20;99.90
63875;DHT22;51595;24.180;-110.296;2022-10-01T07:13:09;28.20;99.90
63875;DHT22;51595;24.180;-110.296;2022-10-01T07:15:36;28.20;99.90
63875;DHT22;51595;24.180;-110.296;2022-10-01T07:18:03;28.00;99.90
63875;DHT22;51595;24.180;-110.296;2022-10-01T07:20:30;27.90;99.90
63875;DHT22;51595;24.180;-110.296;2022-10-01T07:23:00;27.90;99.90
63875;DHT22;51595;24.180;-110.296;2022-10-01T07:25:27;27.80;99.90
63875;DHT22;51595;24.180;-110.296;2022-10-01T07:27:59;27.60;99.90
63875;DHT22;51595;24.180;-110.296;2022-10-01T07:30:27;27.40;99.90
63875;DHT22;51595;24.180;-110.296;2022-10-01T07:32:54;27.20;99.90
63875;DHT22;51595;24.180;-110.296;2022-10-01T07:35:20;27.10;99.90
63875;DHT22;51595;24.180;-110.296;2022-10-01T07:37:48;27.00;99.90
63875;DHT22;51595;24.180;-110.296;2022-10-01T07:40:15;27.20;99.90
63875;DHT22;51595;24.180;-110.296;2022-10-01T07:42:42;27.20;99.90
63875;DHT22;51595;24.180;-110.296;2022-10-01T07:45:09;27.30;99.90
63875;DHT22;51595;24.180;-110.296;2022-10-01T07:47:36;27.30;99.90
63875;DHT22;51595;24.180;-110.296;2022-10-01T07:50:03;27.20;99.90
63875;DHT22;51595;24.180;-110.296;2022-10-01T07:52:32;27.20;99.90
63875;DHT22;51595;24.180;-110.296;2022-10-01T07:54:58;27.30;99.90
63875;DHT22;51595;24.180;-110.296;2022-10-01T07:57:25;27.10;99.90
63875;DHT22;51595;24.180;-110.296;2022-10-01T07:59:51;27.10;99.90
63875;DHT22;51595;24.180;-110.296;2022-10-01T08:02:17;27.00;99.90
63875;DHT22;51595;24.180;-110.296;2022-10-01T08:04:44;27.10;99.90
63875;DHT22;51595;24.180;-110.296;2022-10-01T08:07:30;27.20;99.90
63875;DHT22;51595;24.180;-110.296;2022-10-01T08:09:56;27.10;99.90
63875;DHT22;51595;24.180;-110.296;2022-10-01T08:12:23;27.10;99.90
63875;DHT22;51595;24.180;-110.296;2022-10-01T08:14:53;27.00;99.90
63875;DHT22;51595;24.180;-110.296;2022-10-01T08:17:20;26.90;99.90
63875;DHT22;51595;24.180;-110.296;2022-10-01T08:19:47;27.00;99.90
63875;DHT22;51595;24.180;-110.296;2022-10-01T08:22:13;27.00;99.90
63875;DHT22;51595;24.180;-110.296;2022-10-01T08:24:40;27.10;99.90
63875;DHT22;51595;24.180;-110.296;2022-10-01T08:27:09;27.00;99.90
63875;DHT22;51595;24.180;-110.296;2022-10-01T08:29:38;27.00;99.90
63875;DHT22;51595;24.180;-110.296;2022-10-01T08:32:09;26.90;99.90
63875;DHT22;51595;24.180;-110.296;2022-10-01T08:34:36;26.80;99.90
63875;DHT22;51595;24.180;-110.296;2022-10-01T08:37:02;26.80;99.90
63875;DHT22;51595;24.180;-110.296;2022-10-01T08:39:29;26.90;99.90
63875;DHT22;51595;24.180;-110.296;2022-10-01T08:42:07;26.90;99.90
63875;DHT22;51595;24.180;-110.296;2022-10-01T08:44:44;27.00;99.90
63875;DHT22;51595;24.180;-110.296;2022-10-01T08:48:20;27.10;99.90
63875;DHT22;51595;24.180;-110.296;2022-10-01T08:53:04;27.30;99.90
63875;DHT22;51595;24.180;-110.296;2022-10-01T08:55:33;27.40;99.90
63875;DHT22;51595;24.180;-110.296;2022-10-01T08:58:04;27.40;99.90
63875;DHT22;51595;24.180;-110.296;2022-10-01T09:00:34;27.40;99.90
63875;DHT22;51595;24.180;-110.296;2022-10-01T09:03:05;27.60;99.90
63875;DHT22;51595;24.180;-110.296;2022-10-01T09:05:43;27.60;99.90
63875;DHT22;51595;24.180;-110.296;2022-10-01T09:25:23;27.50;99.90
63875;DHT22;51595;24.180;-110.296;2022-10-01T09:27:50;27.60;99.90
63875;DHT22;51595;24.180;-110.296;2022-10-01T09:30:21;27.70;99.90
63875;DHT22;51595;24.180;-110.296;2022-10-01T09:33:18;27.50;99.90
63875;DHT22;51595;24.180;-110.296;2022-10-01T09:36:05;27.50;99.90
63875;DHT22;51595;24.180;-110.296;2022-10-01T09:41:02;27.50;99.90
63875;DHT22;51595;24.180;-110.296;2022-10-01T09:43:34;27.50;99.90
63875;DHT22;51595;24.180;-110.296;2022-10-01T09:46:03;27.40;99.90
63875;DHT22;51595;24.180;-110.296;2022-10-01T09:48:43;27.30;99.90
63875;DHT22;51595;24.180;-110.296;2022-10-01T09:51:13;27.30;99.90
63875;DHT22;51595;24.180;-110.296;2022-10-01T09:53:58;27.30;99.90
63875;DHT22;51595;24.180;-110.296;2022-10-01T09:56:29;27.20;99.90
63875;DHT22;51595;24.180;-110.296;2022-10-01T09:59:02;27.20;99.90
63875;DHT22;51595;24.180;-110.296;2022-10-01T10:01:47;27.10;99.90
63875;DHT22;51595;24.180;-110.296;2022-10-01T10:04:22;27.20;99.90
63875;DHT22;51595;24.180;-110.296;2022-10-01T10:06:50;27.10;99.90
63875;DHT22;51595;24.180;-110.296;2022-10-01T10:09:22;27.20;99.90
63875;DHT22;51595;24.180;-110.296;2022-10-01T10:11:52;27.40;99.90
63875;DHT22;51595;24.180;-110.296;2022-10-01T10:16:55;27.40;99.90
63875;DHT22;51595;24.180;-110.296;2022-10-01T10:19:23;27.30;99.90
63875;DHT22;51595;24.180;-110.296;2022-10-01T10:21:53;27.30;99.90
63875;DHT22;51595;24.180;-110.296;2022-10-01T10:24:35;27.20;99.90
63875;DHT22;51595;24.180;-110.296;2022-10-01T10:27:05;27.20;99.90
63875;DHT22;51595;24.180;-110.296;2022-10-01T10:29:34;27.20;99.90
63875;DHT22;51595;24.180;-110.296;2022-10-01T10:32:14;27.20;99.90
63875;DHT22;51595;24.180;-110.296;2022-10-01T10:34:43;27.10;99.90
63875;DHT22;51595;24.180;-110.296;2022-10-01T10:37:15;27.10;99.90
63875;DHT22;51595;24.180;-110.296;2022-10-01T10:39:47;27.00;99.90
63875;DHT22;51595;24.180;-110.296;2022-10-01T10:42:18;27.00;99.90
63875;DHT22;51595;24.180;-110.296;2022-10-01T10:44:47;27.00;99.90
63875;DHT22;51595;24.180;-110.296;2022-10-01T10:47:16;27.20;99.90
63875;DHT22;51595;24.180;-110.296;2022-10-01T10:54:56;27.00;99.90
63875;DHT22;51595;24.180;-110.296;2022-10-01T10:57:32;27.00;99.90
63875;DHT22;51595;24.180;-110.296;2022-10-01T11:00:15;26.90;99.90
63875;DHT22;51595;24.180;-110.296;2022-10-01T11:03:12;26.90;99.90
63875;DHT22;51595;24.180;-110.296;2022-10-01T11:05:41;26.80;99.90
63875;DHT22;51595;24.180;-110.296;2022-10-01T11:08:12;26.80;99.90
63875;DHT22;51595;24.180;-110.296;2022-10-01T11:10:48;26.80;99.90
63875;DHT22;51595;24.180;-110.296;2022-10-01T11:16:20;26.70;99.90
63875;DHT22;51595;24.180;-110.296;2022-10-01T11:29:48;26.90;99.90
63875;DHT22;51595;24.180;-110.296;2022-10-01T11:32:44;26.90;99.90
63875;DHT22;51595;24.180;-110.296;2022-10-01T11:41:11;26.80;99.90
63875;DHT22;51595;24.180;-110.296;2022-10-01T11:43:42;26.80;99.90
63875;DHT22;51595;24.180;-110.296;2022-10-01T11:46:35;26.80;99.90
63875;DHT22;51595;24.180;-110.296;2022-10-01T11:51:38;26.80;99.90
63875;DHT22;51595;24.180;-110.296;2022-10-01T11:54:10;26.80;99.90
63875;DHT22;51595;24.180;-110.296;2022-10-01T11:56:48;26.80;99.90
63875;DHT22;51595;24.180;-110.296;2022-10-01T12:04:51;26.60;99.90
63875;DHT22;51595;24.180;-110.296;2022-10-01T12:08:32;26.50;99.90
63875;DHT22;51595;24.180;-110.296;2022-10-01T12:13:18;26.50;99.90
63875;DHT22;51595;24.180;-110.296;2022-10-01T12:16:00;26.50;99.90
63875;DHT22;51595;24.180;-110.296;2022-10-01T12:18:56;26.50;99.90
63875;DHT22;51595;24.180;-110.296;2022-10-01T12:24:39;26.40;99.90
63875;DHT22;51595;24.180;-110.296;2022-10-01T12:32:59;26.10;99.90
63875;DHT22;51595;24.180;-110.296;2022-10-01T12:40:46;25.90;99.90
63875;DHT22;51595;24.180;-110.296;2022-10-01T12:54:18;25.70;99.90
63875;DHT22;51595;24.180;-110.296;2022-10-01T12:57:04;25.80;99.90
63875;DHT22;51595;24.180;-110.296;2022-10-01T13:08:31;25.80;99.90
63875;DHT22;51595;24.180;-110.296;2022-10-01T13:11:25;25.60;99.90
63875;DHT22;51595;24.180;-110.296;2022-10-01T13:13:56;25.60;99.90
63875;DHT22;51595;24.180;-110.296;2022-10-01T13:16:32;25.50;99.90
63875;DHT22;51595;24.180;-110.296;2022-10-01T13:27:26;25.20;99.90
63875;DHT22;51595;24.180;-110.296;2022-10-01T13:30:02;25.30;99.90
63875;DHT22;51595;24.180;-110.296;2022-10-01T13:32:33;25.50;99.90
63875;DHT22;51595;24.180;-110.296;2022-10-01T13:35:20;25.50;99.90
63875;DHT22;51595;24.180;-110.296;2022-10-01T13:37:47;25.50;99.90
63875;DHT22;51595;24.180;-110.296;2022-10-01T13:43:02;25.70;99.90
63875;DHT22;51595;24.180;-110.296;2022-10-01T13:50:37;26.40;99.90
63875;DHT22;51595;24.180;-110.296;2022-10-01T13:53:11;26.30;99.90
63875;DHT22;51595;24.180;-110.296;2022-10-01T13:55:41;26.50;99.90
63875;DHT22;51595;24.180;-110.296;2022-10-01T13:58:30;26.50;99.90
63875;DHT22;51595;24.180;-110.296;2022-10-01T14:01:03;26.70;99.90
63875;DHT22;51595;24.180;-110.296;2022-10-01T14:09:42;27.30;99.90
63875;DHT22;51595;24.180;-110.296;2022-10-01T14:11:56;27.50;99.90
63875;DHT22;51595;24.180;-110.296;2022-10-01T14:15:01;27.90;99.90
63875;DHT22;51595;24.180;-110.296;2022-10-01T14:17:56;28.10;99.90
63875;DHT22;51595;24.180;-110.296;2022-10-01T14:20:26;28.20;99.90
63875;DHT22;51595;24.180;-110.296;2022-10-01T14:23:11;28.20;99.90
63875;DHT22;51595;24.180;-110.296;2022-10-01T14:34:10;29.40;99.90
63875;DHT22;51595;24.180;-110.296;2022-10-01T14:36:48;29.60;99.90
63875;DHT22;51595;24.180;-110.296;2022-10-01T14:39:27;29.80;99.90
63875;DHT22;51595;24.180;-110.296;2022-10-01T14:41:56;30.00;99.90
63875;DHT22;51595;24.180;-110.296;2022-10-01T14:44:27;30.00;99.90
63875;DHT22;51595;24.180;-110.296;2022-10-01T14:46:58;30.10;99.90
63875;DHT22;51595;24.180;-110.296;2022-10-01T14:49:30;30.20;99.90
63875;DHT22;51595;24.180;-110.296;2022-10-01T14:52:02;30.50;99.90
63875;DHT22;51595;24.180;-110.296;2022-10-01T14:54:49;30.50;99.90
63875;DHT22;51595;24.180;-110.296;2022-10-01T14:57:37;30.70;99.90
63875;DHT22;51595;24.180;-110.296;2022-10-01T15:00:07;30.80;99.90
63875;DHT22;51595;24.180;-110.296;2022-10-01T15:02:51;31.10;99.90
63875;DHT22;51595;24.180;-110.296;2022-10-01T15:05:32;31.40;99.90
63875;DHT22;51595;24.180;-110.296;2022-10-01T15:08:31;31.70;99.90
63875;DHT22;51595;24.180;-110.296;2022-10-01T15:11:04;31.80;99.90
63875;DHT22;51595;24.180;-110.296;2022-10-01T15:13:36;32.40;99.90
63875;DHT22;51595;24.180;-110.296;2022-10-01T15:16:04;32.60;99.90
63875;DHT22;51595;24.180;-110.296;2022-10-01T15:18:35;32.60;99.90
63875;DHT22;51595;24.180;-110.296;2022-10-01T15:21:04;32.30;99.90
63875;DHT22;51595;24.180;-110.296;2022-10-01T15:23:33;32.00;99.90
63875;DHT22;51595;24.180;-110.296;2022-10-01T15:26:04;31.80;99.90
63875;DHT22;51595;24.180;-110.296;2022-10-01T15:28:33;31.60;99.90
63875;DHT22;51595;24.180;-110.296;2022-10-01T15:31:02;31.60;99.90
63875;DHT22;51595;24.180;-110.296;2022-10-01T15:33:36;31.90;99.90
63875;DHT22;51595;24.180;-110.296;2022-10-01T15:36:10;32.20;99.90
63875;DHT22;51595;24.180;-110.296;2022-10-01T15:38:37;32.40;99.90
63875;DHT22;51595;24.180;-110.296;2022-10-01T15:41:06;32.20;99.90
63875;DHT22;51595;24.180;-110.296;2022-10-01T15:43:42;32.50;99.90
63875;DHT22;51595;24.180;-110.296;2022-10-01T15:46:18;32.80;99.90
63875;DHT22;51595;24.180;-110.296;2022-10-01T15:48:46;33.00;99.90
63875;DHT22;51595;24.180;-110.296;2022-10-01T15:51:26;33.10;99.60
63875;DHT22;51595;24.180;-110.296;2022-10-01T15:54:02;33.40;98.20
63875;DHT22;51595;24.180;-110.296;2022-10-01T15:56:30;33.50;98.80
63875;DHT22;51595;24.180;-110.296;2022-10-01T15:59:09;33.00;98.70
63875;DHT22;51595;24.180;-110.296;2022-10-01T16:01:38;33.30;99.60
63875;DHT22;51595;24.180;-110.296;2022-10-01T16:04:13;33.20;99.70
63875;DHT22;51595;24.180;-110.296;2022-10-01T16:06:50;32.60;99.90
63875;DHT22;51595;24.180;-110.296;2022-10-01T16:09:24;32.70;99.90
63875;DHT22;51595;24.180;-110.296;2022-10-01T16:19:55;33.30;99.10
63875;DHT22;51595;24.180;-110.296;2022-10-01T16:22:34;33.50;99.30
63875;DHT22;51595;24.180;-110.296;2022-10-01T16:25:04;33.90;98.40
63875;DHT22;51595;24.180;-110.296;2022-10-01T16:27:45;33.80;98.60
63875;DHT22;51595;24.180;-110.296;2022-10-01T16:30:26;33.80;97.60
63875;DHT22;51595;24.180;-110.296;2022-10-01T16:32:53;33.60;98.10
63875;DHT22;51595;24.180;-110.296;2022-10-01T16:35:25;33.80;97.40
63875;DHT22;51595;24.180;-110.296;2022-10-01T16:37:53;33.70;96.00
63875;DHT22;51595;24.180;-110.296;2022-10-01T16:40:29;33.70;97.10
63875;DHT22;51595;24.180;-110.296;2022-10-01T16:42:58;34.00;96.30
63875;DHT22;51595;24.180;-110.296;2022-10-01T16:45:28;34.40;95.90
63875;DHT22;51595;24.180;-110.296;2022-10-01T16:47:57;34.60;94.00
63875;DHT22;51595;24.180;-110.296;2022-10-01T16:50:24;34.70;93.10
63875;DHT22;51595;24.180;-110.296;2022-10-01T16:52:55;35.10;92.10
63875;DHT22;51595;24.180;-110.296;2022-10-01T16:55:25;34.90;91.00
63875;DHT22;51595;24.180;-110.296;2022-10-01T16:57:52;35.30;91.40
63875;DHT22;51595;24.180;-110.296;2022-10-01T17:00:24;35.60;89.60
63875;DHT22;51595;24.180;-110.296;2022-10-01T17:02:52;35.30;89.10
63875;DHT22;51595;24.180;-110.296;2022-10-01T17:05:24;35.40;88.00
63875;DHT22;51595;24.180;-110.296;2022-10-01T17:07:54;35.80;84.20
63875;DHT22;51595;24.180;-110.296;2022-10-01T17:10:30;36.10;82.10
63875;DHT22;51595;24.180;-110.296;2022-10-01T17:12:57;36.60;81.10
63875;DHT22;51595;24.180;-110.296;2022-10-01T17:15:26;36.70;75.80
63875;DHT22;51595;24.180;-110.296;2022-10-01T17:17:53;36.60;77.00
63875;DHT22;51595;24.180;-110.296;2022-10-01T17:20:21;37.00;76.70
63875;DHT22;51595;24.180;-110.296;2022-10-01T17:22:49;37.00;75.60
63875;DHT22;51595;24.180;-110.296;2022-10-01T17:25:18;37.10;74.90
63875;DHT22;51595;24.180;-110.296;2022-10-01T17:27:46;37.00;73.60
63875;DHT22;51595;24.180;-110.296;2022-10-01T17:30:13;36.70;73.50
63875;DHT22;51595;24.180;-110.296;2022-10-01T17:32:40;36.90;73.20
63875;DHT22;51595;24.180;-110.296;2022-10-01T17:35:09;36.30;71.40
63875;DHT22;51595;24.180;-110.296;2022-10-01T17:37:36;36.40;72.40
63875;DHT22;51595;24.180;-110.296;2022-10-01T17:40:04;36.60;73.30
63875;DHT22;51595;24.180;-110.296;2022-10-01T17:42:31;36.80;69.80
63875;DHT22;51595;24.180;-110.296;2022-10-01T17:45:00;37.10;68.10
63875;DHT22;51595;24.180;-110.296;2022-10-01T17:47:26;37.30;66.70
63875;DHT22;51595;24.180;-110.296;2022-10-01T17:49:53;37.80;65.00
63875;DHT22;51595;24.180;-110.296;2022-10-01T17:52:19;37.60;62.30
63875;DHT22;51595;24.180;-110.296;2022-10-01T17:54:46;37.00;63.60
63875;DHT22;51595;24.180;-110.296;2022-10-01T17:57:12;36.80;64.80
63875;DHT22;51595;24.180;-110.296;2022-10-01T17:59:39;37.50;66.40